Time;durP1;ratioP1;P1;durP2;ratioP2;P2;SDS_P1;SDS_P2;PMS_P1;PMS_P2;Temp;Humidity;BMP_temperature;BMP_pressure;BME280_temperature;BME280_humidity;BME280_pressure;Samples;Min_cycle;Max_cycle;Signal;HPM_P1;HPM_P2
2022/10/11 00:01:21;;;;;;;9.17;2.67;;;;;;;;;;5014955;28;20246;-77
2022/10/11 00:03:49;;;;;;;12.50;2.90;;;;;;;;;;5011626;28;20855;-77
2022/10/11 00:06:17;;;;;;;10.50;2.83;;;;;;;;;;5015654;28;20278;-76
2022/10/11 00:08:47;;;;;;;12.20;2.80;;;;;;;;;;5016954;28;20302;-77
2022/10/11 00:11:12;;;;;;;9.23;2.60;;;;;;;;;;5015185;28;20244;-77
2022/10/11 00:13:38;;;;;;;12.13;3.10;;;;;;;;;;5015692;28;20228;-77
2022/10/11 00:16:10;;;;;;;9.00;2.63;;;;;;;;;;5012898;28;20229;-77
2022/10/11 00:18:38;;;;;;;9.50;2.90;;;;;;;;;;5013898;28;20638;-76
2022/10/11 00:21:10;;;;;;;9.13;2.60;;;;;;;;;;4995710;28;20228;-77
2022/10/11 00:23:43;;;;;;;17.63;3.10;;;;;;;;;;4996064;28;20228;-77
2022/10/11 00:26:09;;;;;;;10.70;2.60;;;;;;;;;;4996771;28;20973;-76
2022/10/11 00:28:35;;;;;;;13.87;3.27;;;;;;;;;;4979110;28;20228;-76
2022/10/11 00:31:00;;;;;;;5.27;2.03;;;;;;;;;;4996487;28;20233;-77
2022/10/11 00:33:26;;;;;;;11.87;3.20;;;;;;;;;;5013010;28;20232;-77
2022/10/11 00:35:51;;;;;;;11.73;2.83;;;;;;;;;;4995353;28;20229;-77
2022/10/11 00:38:19;;;;;;;12.63;3.17;;;;;;;;;;4997913;28;20217;-76
2022/10/11 00:40:44;;;;;;;9.90;2.73;;;;;;;;;;4998626;28;20216;-75
2022/10/11 00:43:22;;;;;;;8.43;2.97;;;;;;;;;;5011384;28;20223;-76
2022/10/11 00:46:17;;;;;;;10.37;2.70;;;;;;;;;;5013783;28;20600;-76
2022/10/11 00:48:48;;;;;;;8.20;2.80;;;;;;;;;;5015337;28;20232;-76
2022/10/11 00:51:23;;;;;;;10.83;2.50;;;;;;;;;;4996612;28;20249;-77
2022/10/11 00:53:50;;;;;;;8.10;2.40;;;;;;;;;;5015371;28;20290;-76
2022/10/11 00:56:22;;;;;;;12.63;2.53;;;;;;;;;;5013998;28;20259;-76
2022/10/11 00:58:50;;;;;;;9.73;2.57;;;;;;;;;;4998891;28;20225;-76
2022/10/11 01:01:15;;;;;;;9.40;2.90;;;;;;;;;;5013599;28;20282;-76
2022/10/11 01:03:43;;;;;;;9.17;2.50;;;;;;;;;;5012452;28;20312;-76
2022/10/11 01:06:09;;;;;;;13.37;2.97;;;;;;;;;;4999534;28;20801;-77
2022/10/11 01:08:36;;;;;;;8.83;2.33;;;;;;;;;;5026582;28;20220;-76
2022/10/11 01:11:07;;;;;;;10.27;2.53;;;;;;;;;;4983940;28;20363;-77
2022/10/11 01:14:07;;;;;;;8.23;2.43;;;;;;;;;;5004457;28;20279;-76
2022/10/11 01:16:40;;;;;;;8.83;2.27;;;;;;;;;;5016462;28;20256;-76
2022/10/11 01:19:43;;;;;;;7.53;2.50;;;;;;;;;;5000335;28;20314;-76
2022/10/11 01:22:14;;;;;;;14.13;2.53;;;;;;;;;;4997050;28;20227;-77
2022/10/11 01:25:14;;;;;;;8.67;2.40;;;;;;;;;;5018498;28;20232;-77
2022/10/11 01:28:01;;;;;;;12.20;2.50;;;;;;;;;;5036917;28;20229;-77
2022/10/11 01:30:30;;;;;;;9.23;2.50;;;;;;;;;;5015796;28;20220;-76
2022/10/11 01:33:20;;;;;;;11.50;2.73;;;;;;;;;;4984817;28;20803;-76
2022/10/11 01:35:53;;;;;;;13.50;2.80;;;;;;;;;;5001629;28;20229;-76
2022/10/11 01:39:04;;;;;;;11.13;3.13;;;;;;;;;;5014326;28;20221;-76
2022/10/11 01:41:36;;;;;;;5.00;2.03;;;;;;;;;;4979627;28;20323;-77
2022/10/11 01:44:04;;;;;;;6.53;2.47;;;;;;;;;;4986793;28;20244;-76
2022/10/11 01:46:32;;;;;;;8.23;2.27;;;;;;;;;;5020210;28;20694;-76
2022/10/11 01:48:58;;;;;;;7.03;2.40;;;;;;;;;;5002247;28;20216;-75
2022/10/11 01:51:31;;;;;;;14.53;2.80;;;;;;;;;;5031909;28;20225;-75
2022/10/11 01:54:14;;;;;;;7.87;2.47;;;;;;;;;;5033038;28;20221;-75
2022/10/11 01:57:14;;;;;;;9.47;2.47;;;;;;;;;;5014594;28;20232;-77
2022/10/11 01:59:52;;;;;;;7.50;2.77;;;;;;;;;;5016264;28;20286;-77
2022/10/11 02:02:51;;;;;;;6.90;2.40;;;;;;;;;;4982871;28;20310;-77
2022/10/11 02:05:41;;;;;;;7.87;2.23;;;;;;;;;;5015609;28;20220;-77
2022/10/11 02:08:41;;;;;;;6.37;2.13;;;;;;;;;;5020505;28;20229;-77
2022/10/11 02:11:27;;;;;;;5.73;2.30;;;;;;;;;;4983168;28;20232;-77
2022/10/11 02:14:23;;;;;;;6.13;2.17;;;;;;;;;;5015534;28;20224;-78
2022/10/11 02:16:52;;;;;;;5.47;2.33;;;;;;;;;;5015482;28;20229;-76
2022/10/11 02:19:18;;;;;;;5.87;1.83;;;;;;;;;;4982075;28;20229;-76
2022/10/11 02:21:48;;;;;;;6.17;2.10;;;;;;;;;;4996034;28;20655;-77
2022/10/11 02:24:16;;;;;;;4.47;2.00;;;;;;;;;;5002373;28;20306;-76
2022/10/11 02:26:46;;;;;;;7.83;2.30;;;;;;;;;;5000991;28;20706;-74
2022/10/11 02:29:12;;;;;;;6.80;2.03;;;;;;;;;;4984072;28;20315;-78
2022/10/11 02:31:38;;;;;;;6.73;1.90;;;;;;;;;;5002275;28;20804;-77
2022/10/11 02:34:23;;;;;;;5.43;2.10;;;;;;;;;;4998482;28;20311;-76
2022/10/11 02:36:53;;;;;;;7.50;2.43;;;;;;;;;;5000455;28;20240;-76
2022/10/11 02:39:28;;;;;;;5.07;2.10;;;;;;;;;;5016323;28;20839;-76
2022/10/11 02:41:57;;;;;;;6.43;2.20;;;;;;;;;;5001314;28;20623;-77
2022/10/11 02:44:41;;;;;;;5.07;2.00;;;;;;;;;;4980172;28;20258;-77
2022/10/11 02:47:10;;;;;;;5.63;1.93;;;;;;;;;;5009190;28;20233;-77
2022/10/11 02:49:35;;;;;;;2.93;1.80;;;;;;;;;;4983960;28;20224;-74
2022/10/11 02:52:02;;;;;;;6.37;2.00;;;;;;;;;;5014726;28;20240;-77
2022/10/11 02:54:27;;;;;;;4.63;1.63;;;;;;;;;;5011152;28;20242;-76
2022/10/11 02:56:55;;;;;;;6.90;1.67;;;;;;;;;;5017071;28;20733;-76
2022/10/11 02:59:25;;;;;;;3.20;1.53;;;;;;;;;;4999833;28;20224;-75
2022/10/11 03:01:53;;;;;;;5.67;1.63;;;;;;;;;;5034912;28;20293;-75
2022/10/11 03:04:19;;;;;;;4.70;1.50;;;;;;;;;;5020054;28;20875;-77
2022/10/11 03:06:44;;;;;;;5.00;1.60;;;;;;;;;;4999338;28;20233;-77
2022/10/11 03:09:14;;;;;;;7.37;1.80;;;;;;;;;;5029386;28;20789;-76
2022/10/11 03:11:42;;;;;;;5.97;1.80;;;;;;;;;;4999625;28;20233;-77
2022/10/11 03:14:10;;;;;;;3.30;1.60;;;;;;;;;;4997251;28;20220;-75
2022/10/11 03:16:38;;;;;;;6.17;1.80;;;;;;;;;;5014262;28;20251;-76
2022/10/11 03:19:03;;;;;;;6.50;1.70;;;;;;;;;;4998879;28;20216;-76
2022/10/11 03:21:31;;;;;;;3.90;1.70;;;;;;;;;;4982050;28;20699;-76
2022/10/11 03:23:56;;;;;;;7.80;2.30;;;;;;;;;;5001256;28;20232;-76
2022/10/11 03:26:24;;;;;;;4.87;1.83;;;;;;;;;;5018510;28;20945;-77
2022/10/11 03:28:52;;;;;;;8.03;2.30;;;;;;;;;;5019405;28;20710;-76
2022/10/11 03:31:23;;;;;;;6.23;2.53;;;;;;;;;;5013693;28;20248;-76
2022/10/11 03:33:51;;;;;;;6.70;2.20;;;;;;;;;;4998906;28;20236;-76
2022/10/11 03:36:19;;;;;;;4.20;1.67;;;;;;;;;;5015723;28;20706;-76
2022/10/11 03:38:44;;;;;;;4.57;1.57;;;;;;;;;;5012369;28;20217;-76
2022/10/11 03:41:12;;;;;;;5.90;2.20;;;;;;;;;;4995610;28;20613;-77
2022/10/11 03:43:40;;;;;;;7.70;2.50;;;;;;;;;;4975130;28;20359;-76
2022/10/11 03:46:10;;;;;;;7.20;3.03;;;;;;;;;;4980245;28;20282;-76
2022/10/11 03:48:35;;;;;;;10.17;2.90;;;;;;;;;;5014259;28;20298;-77
2022/10/11 03:51:01;;;;;;;5.03;2.60;;;;;;;;;;5008529;28;20702;-76
2022/10/11 03:53:26;;;;;;;9.17;3.07;;;;;;;;;;5018103;28;20235;-76
2022/10/11 03:55:55;;;;;;;6.23;2.23;;;;;;;;;;5012626;28;20238;-76
2022/10/11 03:58:23;;;;;;;5.87;2.30;;;;;;;;;;5028169;28;20228;-76
2022/10/11 04:00:58;;;;;;;6.40;2.10;;;;;;;;;;4998118;28;20231;-76
2022/10/11 04:03:26;;;;;;;5.43;2.77;;;;;;;;;;4997394;28;20223;-76
2022/10/11 04:05:51;;;;;;;6.43;2.50;;;;;;;;;;4999168;28;20228;-76
2022/10/11 04:08:19;;;;;;;12.33;2.93;;;;;;;;;;4997415;28;20220;-77
2022/10/11 04:10:44;;;;;;;8.17;3.37;;;;;;;;;;5032700;28;20659;-75
2022/10/11 04:13:10;;;;;;;11.93;3.17;;;;;;;;;;5014100;28;20236;-76
2022/10/11 04:15:41;;;;;;;8.43;3.07;;;;;;;;;;5014031;28;20232;-76
2022/10/11 04:18:06;;;;;;;11.00;3.57;;;;;;;;;;4994882;23;20251;-86
2022/10/11 04:20:32;;;;;;;9.07;3.37;;;;;;;;;;4961324;28;20282;-88
2022/10/11 04:23:02;;;;;;;8.43;3.33;;;;;;;;;;4956877;28;20234;-84
2022/10/11 04:25:27;;;;;;;9.70;3.70;;;;;;;;;;4949964;28;20226;-85
2022/10/11 04:27:55;;;;;;;11.87;3.93;;;;;;;;;;4967073;28;20291;-85
2022/10/11 04:30:23;;;;;;;8.27;4.47;;;;;;;;;;4953618;28;20226;-86
2022/10/11 04:32:51;;;;;;;9.20;4.20;;;;;;;;;;4973709;28;20250;-85
2022/10/11 04:35:17;;;;;;;9.27;4.37;;;;;;;;;;4959045;28;20644;-86
2022/10/11 04:37:44;;;;;;;11.67;5.53;;;;;;;;;;4960385;28;20279;-86
2022/10/11 04:40:10;;;;;;;12.43;7.03;;;;;;;;;;4955926;28;20246;-86
2022/10/11 04:42:36;;;;;;;8.43;6.30;;;;;;;;;;4942840;28;20325;-86
2022/10/11 04:45:04;;;;;;;15.47;7.67;;;;;;;;;;4953811;28;20226;-86
2022/10/11 04:47:30;;;;;;;13.57;7.07;;;;;;;;;;4928808;28;20236;-87
2022/10/11 04:49:57;;;;;;;8.83;3.83;;;;;;;;;;4921993;28;20226;-87
2022/10/11 04:52:23;;;;;;;8.00;3.30;;;;;;;;;;4944053;28;20294;-86
2022/10/11 04:54:57;;;;;;;9.83;4.23;;;;;;;;;;4945080;28;20301;-86
2022/10/11 04:57:22;;;;;;;9.17;4.40;;;;;;;;;;4933877;28;20335;-84
2022/10/11 04:59:52;;;;;;;10.33;5.50;;;;;;;;;;4955568;28;20230;-86
2022/10/11 05:02:21;;;;;;;11.23;6.50;;;;;;;;;;4945493;28;20222;-85
2022/10/11 05:04:46;;;;;;;11.27;5.37;;;;;;;;;;4935471;28;20229;-86
2022/10/11 05:07:14;;;;;;;11.60;4.23;;;;;;;;;;4963884;28;20214;-86
2022/10/11 05:09:42;;;;;;;9.87;4.47;;;;;;;;;;4960032;28;20233;-85
2022/10/11 05:12:10;;;;;;;9.23;5.20;;;;;;;;;;4942119;28;20238;-85
2022/10/11 05:14:36;;;;;;;10.07;4.23;;;;;;;;;;4938379;28;20230;-85
2022/10/11 05:17:01;;;;;;;7.63;3.87;;;;;;;;;;4966524;28;20237;-86
2022/10/11 05:19:29;;;;;;;9.60;3.37;;;;;;;;;;4971603;28;20222;-85
2022/10/11 05:21:56;;;;;;;12.30;4.23;;;;;;;;;;4954640;28;20230;-85
2022/10/11 05:24:22;;;;;;;8.40;5.27;;;;;;;;;;4925710;28;20652;-86
2022/10/11 05:26:48;;;;;;;10.10;6.27;;;;;;;;;;4944883;28;20265;-86
2022/10/11 05:29:13;;;;;;;10.23;5.97;;;;;;;;;;4941589;28;20320;-87
2022/10/11 05:31:42;;;;;;;9.63;4.40;;;;;;;;;;4957746;28;20290;-84
2022/10/11 05:34:07;;;;;;;6.87;3.83;;;;;;;;;;4936878;28;20226;-84
2022/10/11 05:36:35;;;;;;;10.10;4.40;;;;;;;;;;4943698;28;20246;-85
2022/10/11 05:39:00;;;;;;;9.33;4.50;;;;;;;;;;4942761;28;20287;-84
2022/10/11 05:41:28;;;;;;;14.13;4.10;;;;;;;;;;4939297;28;20223;-84
2022/10/11 05:43:57;;;;;;;8.73;4.37;;;;;;;;;;4950158;28;20307;-85
2022/10/11 05:46:22;;;;;;;10.30;4.17;;;;;;;;;;4925913;28;20330;-86
2022/10/11 05:48:48;;;;;;;11.73;3.83;;;;;;;;;;4954147;28;20237;-86
2022/10/11 05:51:13;;;;;;;10.37;3.90;;;;;;;;;;4945980;28;20640;-84
2022/10/11 05:53:41;;;;;;;7.47;4.03;;;;;;;;;;4955558;28;20246;-84
2022/10/11 05:56:23;;;;;;;10.77;4.80;;;;;;;;;;4933397;28;20234;-83
2022/10/11 05:58:53;;;;;;;8.87;4.00;;;;;;;;;;4946007;28;20231;-85
2022/10/11 06:01:24;;;;;;;25.63;20.23;;;;;;;;;;4943182;28;20211;-84
2022/10/11 06:03:50;;;;;;;20.23;11.67;;;;;;;;;;4962895;28;20218;-83
2022/10/11 06:06:16;;;;;;;11.43;6.60;;;;;;;;;;4968413;28;20225;-80
2022/10/11 06:08:41;;;;;;;11.73;5.70;;;;;;;;;;4984448;28;20313;-82
2022/10/11 06:11:15;;;;;;;8.67;5.57;;;;;;;;;;4972828;28;20245;-82
2022/10/11 06:13:41;;;;;;;10.50;4.43;;;;;;;;;;4954968;28;20234;-82
2022/10/11 06:16:07;;;;;;;9.03;4.40;;;;;;;;;;4966879;28;20240;-84
2022/10/11 06:18:32;;;;;;;8.17;4.23;;;;;;;;;;4945480;28;20261;-83
2022/10/11 06:20:58;;;;;;;11.17;4.67;;;;;;;;;;4944872;28;20234;-84
2022/10/11 06:23:24;;;;;;;7.50;4.03;;;;;;;;;;4931257;28;20713;-83
2022/10/11 06:26:04;;;;;;;8.20;3.97;;;;;;;;;;4967230;28;20226;-83
2022/10/11 06:28:30;;;;;;;6.00;3.97;;;;;;;;;;4974175;28;20235;-83
2022/10/11 06:30:58;;;;;;;10.00;4.70;;;;;;;;;;4933582;28;20230;-85
2022/10/11 06:33:23;;;;;;;9.20;4.23;;;;;;;;;;4955046;28;20253;-81
2022/10/11 06:35:49;;;;;;;7.83;4.50;;;;;;;;;;4960439;28;20227;-83
2022/10/11 06:38:17;;;;;;;8.97;4.80;;;;;;;;;;4946149;28;20214;-84
2022/10/11 06:40:43;;;;;;;9.47;4.63;;;;;;;;;;4978703;28;20601;-84
2022/10/11 06:43:09;;;;;;;14.40;4.80;;;;;;;;;;4942437;28;20226;-83
2022/10/11 06:45:36;;;;;;;12.93;4.50;;;;;;;;;;4959772;28;20287;-83
2022/10/11 06:48:04;;;;;;;12.40;4.93;;;;;;;;;;4965147;28;20230;-82
2022/10/11 06:50:36;;;;;;;9.47;5.07;;;;;;;;;;4961060;28;20305;-82
2022/10/11 06:53:01;;;;;;;12.07;5.97;;;;;;;;;;4941340;28;20226;-84
2022/10/11 06:55:27;;;;;;;8.00;5.00;;;;;;;;;;4959548;28;20593;-83
2022/10/11 06:57:52;;;;;;;14.90;5.63;;;;;;;;;;4919597;28;20227;-82
2022/10/11 07:00:18;;;;;;;11.13;6.77;;;;;;;;;;4930128;28;20226;-81
2022/10/11 07:02:44;;;;;;;10.53;5.70;;;;;;;;;;4942669;28;20230;-82
2022/10/11 07:05:09;;;;;;;13.60;7.33;;;;;;;;;;4963798;28;20222;-83
2022/10/11 07:07:39;;;;;;;8.57;5.77;;;;;;;;;;4943214;28;20238;-82
2022/10/11 07:10:05;;;;;;;14.73;10.47;;;;;;;;;;4937193;28;20237;-83
2022/10/11 07:12:31;;;;;;;37.33;33.73;;;;;;;;;;4942081;28;20231;-83
2022/10/11 07:14:56;;;;;;;29.57;26.87;;;;;;;;;;4944973;28;20222;-83
2022/10/11 07:17:22;;;;;;;25.77;22.60;;;;;;;;;;4940379;28;20230;-81
2022/10/11 07:19:47;;;;;;;12.13;7.40;;;;;;;;;;4955371;28;20235;-82
2022/10/11 07:22:13;;;;;;;12.43;5.70;;;;;;;;;;4942108;28;20288;-83
2022/10/11 07:24:38;;;;;;;11.93;5.47;;;;;;;;;;4973361;28;20765;-82
2022/10/11 07:27:04;;;;;;;8.33;5.07;;;;;;;;;;4947161;28;20234;-82
2022/10/11 07:29:29;;;;;;;7.63;5.00;;;;;;;;;;4933667;28;20231;-82
2022/10/11 07:31:57;;;;;;;8.10;4.57;;;;;;;;;;4929432;28;20285;-83
2022/10/11 07:34:25;;;;;;;9.33;5.07;;;;;;;;;;4958216;28;20223;-82
2022/10/11 07:36:50;;;;;;;12.03;4.47;;;;;;;;;;4935827;28;20233;-81
2022/10/11 07:39:16;;;;;;;8.40;4.90;;;;;;;;;;4943092;28;20620;-81
2022/10/11 07:41:41;;;;;;;8.73;4.40;;;;;;;;;;4961669;28;20258;-84
2022/10/11 07:44:07;;;;;;;10.30;4.57;;;;;;;;;;4941661;28;20261;-83
2022/10/11 07:46:35;;;;;;;7.77;4.43;;;;;;;;;;4958575;28;20711;-82
2022/10/11 07:49:01;;;;;;;10.37;4.43;;;;;;;;;;4931966;28;20241;-83
2022/10/11 07:51:26;;;;;;;11.47;4.63;;;;;;;;;;4938175;28;20226;-83
2022/10/11 07:53:58;;;;;;;9.73;4.70;;;;;;;;;;4962501;28;20230;-83
2022/10/11 07:56:25;;;;;;;9.10;4.10;;;;;;;;;;4958335;28;20227;-83
2022/10/11 07:58:58;;;;;;;5.50;4.13;;;;;;;;;;4932523;28;20250;-85
2022/10/11 08:01:27;;;;;;;7.90;3.50;;;;;;;;;;4922823;28;20237;-84
2022/10/11 08:03:57;;;;;;;9.53;4.17;;;;;;;;;;4960233;28;20238;-84
2022/10/11 08:06:29;;;;;;;8.13;4.37;;;;;;;;;;4925670;28;20689;-84
2022/10/11 08:08:55;;;;;;;12.10;6.33;;;;;;;;;;4954652;28;20329;-84
2022/10/11 08:11:22;;;;;;;11.87;5.30;;;;;;;;;;4961131;28;20230;-84
2022/10/11 08:13:50;;;;;;;7.80;4.60;;;;;;;;;;4919962;28;20722;-83
2022/10/11 08:16:15;;;;;;;9.13;4.03;;;;;;;;;;4923411;28;20222;-82
2022/10/11 08:18:43;;;;;;;8.03;3.60;;;;;;;;;;4946129;28;20322;-84
2022/10/11 08:21:10;;;;;;;7.87;4.47;;;;;;;;;;4960911;28;20230;-86
2022/10/11 08:23:36;;;;;;;5.77;3.87;;;;;;;;;;4941731;28;20698;-85
2022/10/11 08:26:04;;;;;;;13.20;4.40;;;;;;;;;;4952034;28;20219;-84
2022/10/11 08:28:30;;;;;;;7.57;3.77;;;;;;;;;;4957899;23;20235;-76
2022/10/11 08:30:55;;;;;;;8.90;3.73;;;;;;;;;;4972861;28;20221;-76
2022/10/11 08:33:22;;;;;;;7.60;3.20;;;;;;;;;;5006166;28;20221;-76
2022/10/11 08:35:51;;;;;;;10.30;3.73;;;;;;;;;;4983464;28;20225;-76
2022/10/11 08:38:16;;;;;;;8.90;3.50;;;;;;;;;;4972832;28;20226;-75
2022/10/11 08:40:50;;;;;;;7.53;3.33;;;;;;;;;;4959330;28;20227;-75
2022/10/11 08:43:35;;;;;;;13.50;3.23;;;;;;;;;;4967636;28;20225;-76
2022/10/11 08:46:01;;;;;;;5.97;3.03;;;;;;;;;;5006591;28;20308;-76
2022/10/11 08:48:37;;;;;;;6.73;3.00;;;;;;;;;;4970354;28;20242;-76
2022/10/11 08:51:12;;;;;;;10.67;3.50;;;;;;;;;;4994562;28;20737;-76
2022/10/11 08:54:04;;;;;;;7.00;2.73;;;;;;;;;;4977104;28;20228;-75
2022/10/11 08:56:29;;;;;;;8.80;3.03;;;;;;;;;;4981985;28;20282;-76
2022/10/11 08:59:18;;;;;;;9.70;3.07;;;;;;;;;;4975361;28;20229;-76
2022/10/11 09:01:46;;;;;;;8.40;2.57;;;;;;;;;;4947915;28;20240;-76
2022/10/11 09:04:15;;;;;;;7.07;3.17;;;;;;;;;;4994299;28;20225;-76
2022/10/11 09:06:48;;;;;;;6.87;2.60;;;;;;;;;;4975470;28;20231;-75
2022/10/11 09:09:54;;;;;;;5.50;2.53;;;;;;;;;;4980055;28;20229;-75
2022/10/11 09:12:41;;;;;;;7.70;2.80;;;;;;;;;;5001438;28;20217;-76
2022/10/11 09:15:30;;;;;;;7.53;2.60;;;;;;;;;;5012492;28;20309;-75
2022/10/11 09:18:27;;;;;;;9.40;2.47;;;;;;;;;;4989020;28;20226;-76
2022/10/11 09:21:29;;;;;;;5.97;2.47;;;;;;;;;;4987715;28;20226;-75
2022/10/11 09:24:26;;;;;;;8.47;2.73;;;;;;;;;;4989974;28;20656;-75
2022/10/11 09:26:55;;;;;;;7.73;2.43;;;;;;;;;;4981118;28;20287;-75
2022/10/11 09:29:39;;;;;;;6.17;2.33;;;;;;;;;;4990835;28;20628;-75
2022/10/11 09:32:12;;;;;;;3.57;2.27;;;;;;;;;;5009489;28;20252;-75
2022/10/11 09:34:37;;;;;;;7.03;2.80;;;;;;;;;;5009013;28;20221;-75
2022/10/11 09:37:20;;;;;;;7.43;2.57;;;;;;;;;;4977900;28;20233;-74
2022/10/11 09:39:53;;;;;;;5.93;2.30;;;;;;;;;;4967977;28;20575;-75
2022/10/11 09:42:19;;;;;;;3.50;2.03;;;;;;;;;;4979301;28;20781;-75
2022/10/11 09:44:48;;;;;;;10.97;2.73;;;;;;;;;;4983772;28;20226;-75
2022/10/11 09:47:22;;;;;;;8.07;2.50;;;;;;;;;;4978409;28;20281;-75
2022/10/11 09:49:50;;;;;;;5.47;2.10;;;;;;;;;;4993782;28;20259;-75
2022/10/11 09:52:19;;;;;;;9.67;2.70;;;;;;;;;;4997529;28;20684;-74
2022/10/11 09:54:49;;;;;;;10.67;2.60;;;;;;;;;;4984970;28;20225;-75
2022/10/11 09:57:22;;;;;;;6.83;2.30;;;;;;;;;;4991751;28;20221;-74
2022/10/11 09:59:58;;;;;;;5.73;2.03;;;;;;;;;;4980101;28;20597;-74
2022/10/11 10:02:24;;;;;;;13.33;2.27;;;;;;;;;;5004325;28;20221;-74
2022/10/11 10:04:52;;;;;;;8.40;2.00;;;;;;;;;;4992238;28;20312;-74
2022/10/11 10:07:18;;;;;;;5.17;2.13;;;;;;;;;;4991226;28;20256;-73
2022/10/11 10:09:43;;;;;;;11.60;2.30;;;;;;;;;;4989416;28;20315;-75
2022/10/11 10:12:22;;;;;;;6.53;2.27;;;;;;;;;;4978226;28;20232;-74
2022/10/11 10:15:07;;;;;;;5.27;1.90;;;;;;;;;;4993204;28;20355;-74
2022/10/11 10:17:33;;;;;;;8.47;2.23;;;;;;;;;;4983042;28;20746;-74
2022/10/11 10:20:04;;;;;;;8.23;1.97;;;;;;;;;;4976637;28;20257;-74
2022/10/11 10:22:30;;;;;;;9.07;2.20;;;;;;;;;;4977436;28;20232;-74
2022/10/11 10:24:57;;;;;;;3.37;1.53;;;;;;;;;;5003016;28;20218;-74
2022/10/11 10:27:27;;;;;;;7.17;2.07;;;;;;;;;;4994636;28;20244;-74
2022/10/11 10:30:14;;;;;;;8.47;2.20;;;;;;;;;;4981092;28;20240;-74
2022/10/11 10:32:52;;;;;;;4.90;1.60;;;;;;;;;;4980007;28;20231;-75
2022/10/11 10:35:30;;;;;;;6.93;2.45;;;;;;;;;;4996476;28;20221;-75
2022/10/11 10:37:59;;;;;;;6.90;2.27;;;;;;;;;;4991623;28;20252;-72
2022/10/11 10:40:30;;;;;;;4.83;2.00;;;;;;;;;;4997234;28;20666;-74
2022/10/11 10:42:55;;;;;;;8.80;2.33;;;;;;;;;;4978113;28;20596;-74
2022/10/11 10:45:27;;;;;;;7.57;2.00;;;;;;;;;;4973112;28;20709;-73
2022/10/11 10:48:24;;;;;;;6.20;2.15;;;;;;;;;;4987324;28;20218;-73
2022/10/11 10:50:53;;;;;;;5.75;1.88;;;;;;;;;;4971347;28;20324;-74
2022/10/11 10:53:22;;;;;;;8.68;2.08;;;;;;;;;;4980917;28;20854;-74
2022/10/11 10:56:09;;;;;;;8.50;2.67;;;;;;;;;;5005573;28;20252;-74
2022/10/11 10:58:44;;;;;;;3.33;1.73;;;;;;;;;;4974553;28;20794;-73
2022/10/11 11:01:18;;;;;;;5.10;2.00;;;;;;;;;;5001598;28;20228;-74
2022/10/11 11:04:11;;;;;;;6.20;2.08;;;;;;;;;;4980259;28;20714;-73
2022/10/11 11:06:58;;;;;;;7.07;2.20;;;;;;;;;;5002646;28;20233;-75
2022/10/11 11:09:44;;;;;;;9.10;2.20;;;;;;;;;;4990807;28;20325;-73
2022/10/11 11:12:38;;;;;;;4.57;2.22;;;;;;;;;;4995302;28;20229;-73
2022/10/11 11:15:19;;;;;;;13.18;2.38;;;;;;;;;;5010740;28;20301;-73
2022/10/11 11:18:07;;;;;;;5.63;2.03;;;;;;;;;;4995956;28;20233;-75
2022/10/11 11:20:48;;;;;;;6.33;1.97;;;;;;;;;;5007559;28;20232;-75
2022/10/11 11:23:16;;;;;;;6.10;2.03;;;;;;;;;;4991949;28;20240;-74
2022/10/11 11:25:50;;;;;;;10.05;2.28;;;;;;;;;;4991581;28;20233;-76
2022/10/11 11:28:45;;;;;;;7.05;2.20;;;;;;;;;;4995545;28;20232;-73
2022/10/11 11:31:19;;;;;;;7.65;2.38;;;;;;;;;;5009096;28;20231;-74
2022/10/11 11:33:54;;;;;;;6.13;2.20;;;;;;;;;;4981402;28;20224;-74
2022/10/11 11:36:26;;;;;;;7.05;2.20;;;;;;;;;;5008584;28;20234;-76
2022/10/11 11:39:00;;;;;;;9.23;2.55;;;;;;;;;;4990874;28;20313;-76
2022/10/11 11:41:29;;;;;;;11.23;2.47;;;;;;;;;;4976186;28;20744;-75
2022/10/11 11:43:58;;;;;;;7.68;2.17;;;;;;;;;;4988925;28;20222;-74
2022/10/11 11:46:29;;;;;;;5.35;1.95;;;;;;;;;;5005690;28;20222;-75
2022/10/11 11:48:55;;;;;;;8.43;2.30;;;;;;;;;;4978347;28;20241;-76
2022/10/11 11:51:30;;;;;;;5.18;1.92;;;;;;;;;;4964998;28;20232;-75
2022/10/11 11:54:16;;;;;;;5.18;2.00;;;;;;;;;;4971327;28;20712;-75
2022/10/11 11:57:01;;;;;;;10.98;2.47;;;;;;;;;;4989873;28;20236;-74
2022/10/11 11:59:46;;;;;;;4.88;1.88;;;;;;;;;;4997014;28;20216;-73
2022/10/11 12:02:11;;;;;;;8.47;2.03;;;;;;;;;;4974296;28;20242;-73
2022/10/11 12:04:41;;;;;;;6.45;2.25;;;;;;;;;;4991052;28;20741;-74
2022/10/11 12:07:10;;;;;;;6.90;2.33;;;;;;;;;;4953735;28;20217;-74
2022/10/11 12:09:40;;;;;;;7.43;2.20;;;;;;;;;;4995111;28;20677;-75
2022/10/11 12:12:06;;;;;;;6.85;2.17;;;;;;;;;;4971751;28;20234;-73
2022/10/11 12:14:32;;;;;;;5.95;2.25;;;;;;;;;;4971226;28;20581;-75
2022/10/11 12:17:20;;;;;;;5.57;1.75;;;;;;;;;;5008223;28;20236;-73
2022/10/11 12:20:09;;;;;;;7.65;2.20;;;;;;;;;;4994191;28;20286;-73
2022/10/11 12:22:49;;;;;;;6.93;2.00;;;;;;;;;;4972503;28;20229;-73
2022/10/11 12:25:20;;;;;;;6.68;1.85;;;;;;;;;;4973983;28;20252;-74
2022/10/11 12:27:46;;;;;;;5.80;1.87;;;;;;;;;;4997727;28;20233;-71
2022/10/11 12:30:43;;;;;;;4.93;2.17;;;;;;;;;;4971844;28;20244;-73
2022/10/11 12:33:22;;;;;;;7.20;2.00;;;;;;;;;;5000701;28;20264;-72
2022/10/11 12:35:53;;;;;;;10.10;2.58;;;;;;;;;;4988228;28;20225;-73
2022/10/11 12:38:32;;;;;;;6.68;2.95;;;;;;;;;;4999248;28;20217;-72
2022/10/11 12:41:17;;;;;;;7.15;2.45;;;;;;;;;;4960862;28;20236;-74
2022/10/11 12:43:48;;;;;;;12.90;2.08;;;;;;;;;;4969205;28;20228;-73
2022/10/11 12:46:29;;;;;;;6.18;2.28;;;;;;;;;;5002049;28;20233;-72
2022/10/11 12:49:26;;;;;;;8.10;2.13;;;;;;;;;;5003499;28;20229;-72
2022/10/11 12:52:01;;;;;;;5.78;2.35;;;;;;;;;;4954753;28;20233;-72
2022/10/11 12:54:55;;;;;;;6.15;2.35;;;;;;;;;;4991075;28;20218;-72
2022/10/11 12:57:23;;;;;;;6.93;2.28;;;;;;;;;;4997822;28;20714;-73
2022/10/11 12:59:49;;;;;;;7.38;1.90;;;;;;;;;;4986381;28;20229;-72
2022/10/11 13:02:27;;;;;;;5.50;2.10;;;;;;;;;;4972645;28;20658;-73
2022/10/11 13:05:12;;;;;;;6.35;2.10;;;;;;;;;;4971274;28;20235;-72
2022/10/11 13:07:38;;;;;;;5.15;2.10;;;;;;;;;;4979667;28;20332;-73
2022/10/11 13:10:04;;;;;;;6.90;2.50;;;;;;;;;;4997148;28;20296;-72
2022/10/11 13:12:32;;;;;;;8.13;2.80;;;;;;;;;;4985518;28;20323;-74
2022/10/11 13:15:05;;;;;;;8.38;3.38;;;;;;;;;;4995616;28;20227;-72
2022/10/11 13:17:35;;;;;;;7.00;2.55;;;;;;;;;;4988844;28;20225;-72
2022/10/11 13:20:16;;;;;;;9.15;2.40;;;;;;;;;;4977879;28;20281;-71
2022/10/11 13:22:43;;;;;;;7.78;2.38;;;;;;;;;;4977054;28;20224;-73
2022/10/11 13:25:13;;;;;;;4.60;2.10;;;;;;;;;;4973087;28;20218;-73
2022/10/11 13:27:41;;;;;;;5.68;2.17;;;;;;;;;;4983471;28;20225;-73
2022/10/11 13:30:12;;;;;;;6.60;2.45;;;;;;;;;;4976885;28;20260;-74
2022/10/11 13:32:40;;;;;;;4.95;1.98;;;;;;;;;;4963974;28;20714;-73
2022/10/11 13:35:13;;;;;;;8.60;2.13;;;;;;;;;;4988424;28;20316;-72
2022/10/11 13:37:44;;;;;;;5.70;2.38;;;;;;;;;;4985215;28;20313;-74
2022/10/11 13:40:17;;;;;;;5.72;2.15;;;;;;;;;;4957867;28;20232;-73
2022/10/11 13:42:43;;;;;;;6.32;2.10;;;;;;;;;;4967580;28;20735;-75
2022/10/11 13:45:13;;;;;;;6.53;2.28;;;;;;;;;;4990706;28;20248;-73
2022/10/11 13:47:38;;;;;;;11.52;2.33;;;;;;;;;;4993177;28;20256;-75
2022/10/11 13:50:07;;;;;;;6.45;2.20;;;;;;;;;;4976710;28;20225;-73
2022/10/11 13:52:45;;;;;;;8.00;2.58;;;;;;;;;;5006701;28;20233;-75
2022/10/11 13:55:22;;;;;;;10.50;2.20;;;;;;;;;;4984094;28;20224;-75
2022/10/11 13:57:48;;;;;;;5.03;2.10;;;;;;;;;;4982281;28;20783;-75
2022/10/11 14:00:23;;;;;;;4.33;2.70;;;;;;;;;;4981719;28;20679;-74
2022/10/11 14:02:50;;;;;;;6.97;3.20;;;;;;;;;;4995118;28;20229;-75
2022/10/11 14:05:26;;;;;;;8.70;2.42;;;;;;;;;;4963825;28;20699;-74
2022/10/11 14:07:54;;;;;;;11.70;3.10;;;;;;;;;;5006233;28;20308;-75
2022/10/11 14:10:20;;;;;;;6.63;2.20;;;;;;;;;;4978405;28;20214;-75
2022/10/11 14:13:28;;;;;;;3.47;1.87;;;;;;;;;;4972211;28;20233;-74
2022/10/11 14:16:00;;;;;;;6.67;2.57;;;;;;;;;;4967104;28;20221;-72
2022/10/11 14:18:49;;;;;;;5.43;2.10;;;;;;;;;;4973715;28;20222;-74
2022/10/11 14:21:31;;;;;;;6.57;2.40;;;;;;;;;;5001768;28;20218;-73
2022/10/11 14:23:59;;;;;;;9.30;2.47;;;;;;;;;;4983305;28;20220;-74
2022/10/11 14:26:58;;;;;;;6.35;2.40;;;;;;;;;;4982832;28;20622;-74
2022/10/11 14:29:27;;;;;;;7.27;2.50;;;;;;;;;;4951534;28;20239;-74
2022/10/11 14:32:16;;;;;;;5.10;2.00;;;;;;;;;;5002496;28;20236;-74
2022/10/11 14:34:44;;;;;;;7.67;2.00;;;;;;;;;;4988963;28;20226;-74
2022/10/11 14:37:19;;;;;;;8.00;2.30;;;;;;;;;;4971545;28;20233;-75
2022/10/11 14:39:46;;;;;;;6.07;1.90;;;;;;;;;;4967310;28;20858;-72
2022/10/11 14:42:12;;;;;;;6.80;2.20;;;;;;;;;;4982713;28;20248;-73
2022/10/11 14:44:37;;;;;;;8.30;2.10;;;;;;;;;;4979507;28;20226;-75
2022/10/11 14:47:05;;;;;;;7.90;2.17;;;;;;;;;;5000103;28;20735;-74
2022/10/11 14:49:33;;;;;;;5.23;2.00;;;;;;;;;;5003149;28;20229;-75
2022/10/11 14:51:59;;;;;;;5.13;1.90;;;;;;;;;;4997812;28;20232;-76
2022/10/11 14:54:29;;;;;;;6.88;1.75;;;;;;;;;;4962479;28;20706;-72
2022/10/11 14:56:56;;;;;;;11.85;2.22;;;;;;;;;;4964586;28;20230;-74
2022/10/11 14:59:24;;;;;;;6.80;2.23;;;;;;;;;;4998608;28;20216;-73
2022/10/11 15:01:50;;;;;;;8.15;2.28;;;;;;;;;;4988209;28;20711;-75
2022/10/11 15:04:23;;;;;;;7.20;2.23;;;;;;;;;;4970280;28;20217;-73
2022/10/11 15:06:49;;;;;;;6.57;2.40;;;;;;;;;;4983038;28;20236;-73
2022/10/11 15:09:19;;;;;;;6.07;2.35;;;;;;;;;;4979342;28;20228;-73